Forty Niner — WDH8678 — position and weather

sailwx.info

Track history (hours):
 
Tides and Currents Weather Stations Pressure Air Temp Water Temp Dewpoint Dewpoint Depression Visibility Wind Speed Wind Dir Waves Ship Positions

Forty Niner

Owner: Forty-Niner Marine Services, LLC, Anchorage, AK. More information available from US FCC via Universal Licensing System and Coast Guard Vessel Documentation Center.

Last reported at 2018-May-22 16:38 UTC. Time now 2018-Jul-22 08:28 UTC.
Position N 54°31' W 130°38'.
Warning: this ship's position is months out of date.

Length 21 m.

Type: Pleasure craft. MMSI: 367660390.

Date/timePositionNaut miles runAvg speedWind from/ knotsBaromVisibWave heightAir tempDewpointWater temp
2018-May-22 16:38N 54°31' W 130°38'529.8
2018-May-22 16:28N 54°26' W 130°36'1328.5
2018-May-22 16:00N 54°14' W 130°28'611.2
2018-May-22 15:30N 54°18' W 130°21'1 2.7
2018-May-22 14:59N 54°19' W 130°19'0 0.0
2018-May-22 14:26N 54°19' W 130°19'0 0.0
2018-May-22 13:59N 54°19' W 130°19'0 0.0
2018-May-22 13:29N 54°19' W 130°19'0 0.0
2018-May-22 12:59N 54°19' W 130°19'0 0.0
2018-May-22 12:29N 54°19' W 130°19'0 0.0
2018-May-22 11:53N 54°19' W 130°19'0 0.0
2018-May-22 11:26N 54°19' W 130°19'0 0.0
2018-May-22 10:53N 54°19' W 130°19'0 0.0
2018-May-22 10:29N 54°19' W 130°19'0 0.0
2018-May-22 09:59N 54°19' W 130°19'0 0.0
2018-May-22 09:29N 54°19' W 130°19'0 0.0
2018-May-22 08:59N 54°19' W 130°19'0 0.0
2018-May-22 08:23N 54°19' W 130°19'0 0.0
2018-May-22 07:59N 54°19' W 130°19'0 0.0
2018-May-22 07:29N 54°19' W 130°19'0 0.0
2018-May-22 06:59N 54°19' W 130°19'0 0.0
2018-May-22 06:29N 54°19' W 130°19'0 0.0
2018-May-22 05:59N 54°19' W 130°19'0 0.0
2018-May-22 05:29N 54°19' W 130°19'0 0.0
2018-May-22 04:59N 54°19' W 130°19'0 0.0
2018-May-22 04:29N 54°19' W 130°19'0 0.0
2018-May-22 03:59N 54°19' W 130°19'0 0.0
2018-May-22 03:29N 54°19' W 130°19'0 0.0
2018-May-22 02:56N 54°19' W 130°19'0 0.0
2018-May-22 02:29N 54°19' W 130°19'0 0.0
2018-May-22 01:59N 54°19' W 130°19'0 0.0
2018-May-22 01:29N 54°19' W 130°19'0 0.0
2018-May-22 00:59N 54°19' W 130°19'0 0.0
2018-May-22 00:29N 54°19' W 130°19'0 0.0
2018-May-21 23:59N 54°19' W 130°19'0 0.0
2018-May-21 23:29N 54°19' W 130°19'0 0.0
2018-May-21 22:59N 54°19' W 130°19'0 0.0
2018-May-21 22:29N 54°19' W 130°19'3 5.5
2018-May-21 22:00N 54°17' W 130°22'1325.6
2018-May-21 21:30N 54°05' W 130°17'1326.8
2018-May-21 21:00N 53°53' W 130°06'10423.7
2018-May-21 16:38N 52°28' W 128°28'22 1.3
2018-May-20 23:06N 52°10' W 128°06'2 7.0
2018-May-20 22:52N 52°09' W 128°08'514.9
2018-May-20 22:30N 52°05' W 128°02'1121.6
2018-May-20 22:00N 51°55' W 127°55'1326.9
2018-May-20 21:30N 51°41' W 127°54'1327.0
2018-May-20 21:00N 51°28' W 127°51'2025.7
2018-May-20 20:13N 51°08' W 127°48'625.7
2018-May-20 19:59N 51°04' W 127°41'1326.1
2018-May-20 19:30N 50°55' W 127°26'1525.8
2018-May-20 18:56N 50°48' W 127°06'7424.4
2018-May-20 15:54N 50°13' W 125°23'1125.6
2018-May-20 15:29N 50°04' W 125°15'2 3.5
2018-May-20 14:58N 50°02' W 125°15'0 0.0
2018-May-20 14:28N 50°02' W 125°15'0 0.0
2018-May-20 13:58N 50°02' W 125°15'0 0.0
2018-May-20 13:28N 50°02' W 125°15'0 0.0
2018-May-20 12:58N 50°02' W 125°15'0 0.0
2018-May-20 12:28N 50°02' W 125°15'0 0.0
2018-May-20 11:58N 50°02' W 125°15'0 0.0
2018-May-20 11:28N 50°02' W 125°15'0 0.0
2018-May-20 10:58N 50°02' W 125°15'0 0.0
2018-May-20 10:28N 50°02' W 125°15'0 0.0
2018-May-20 09:58N 50°02' W 125°15'0 0.0
2018-May-20 09:28N 50°02' W 125°15'0 0.0
2018-May-20 08:58N 50°02' W 125°15'0 0.0
2018-May-20 08:28N 50°02' W 125°15'0 0.0
2018-May-20 07:58N 50°02' W 125°15'0 0.0
2018-May-20 07:28N 50°02' W 125°15'0 0.0
2018-May-20 06:58N 50°02' W 125°15'0 0.0
2018-May-20 06:28N 50°02' W 125°15'0 0.0
2018-May-20 05:58N 50°02' W 125°15'0 0.0
2018-May-20 05:28N 50°02' W 125°15'0 0.0
2018-May-20 04:58N 50°02' W 125°15'0 0.0
2018-May-20 04:28N 50°02' W 125°15'0 0.0
2018-May-20 03:58N 50°02' W 125°15'0 0.0
2018-May-20 03:28N 50°02' W 125°15'0 0.0
2018-May-20 02:58N 50°02' W 125°15'0 0.0
2018-May-20 02:28N 50°02' W 125°15'0 0.0
2018-May-20 01:58N 50°02' W 125°15'0 0.0
2018-May-20 01:28N 50°02' W 125°15'0 0.0
2018-May-20 00:58N 50°02' W 125°15'0 0.0
2018-May-20 00:28N 50°02' W 125°15'0 0.4
2018-May-19 23:59N 50°02' W 125°15'0 0.1
2018-May-19 23:28N 50°02' W 125°15'918.6
2018-May-19 22:59N 49°55' W 125°06'1327.0
2018-May-19 22:30N 49°46' W 124°51'8025.0
2018-May-19 19:17N 48°52' W 123°21'722.8
2018-May-19 18:59N 48°45' W 123°19'1723.1
2018-May-19 18:16N 48°29' W 123°09'4322.4
2018-May-19 16:21N 47°56' W 122°30'926.3
2018-May-19 16:00N 47°47' W 122°26'713.0
2018-May-19 15:28N 47°40' W 122°24'1 1.1
2018-May-19 14:57N 47°40' W 122°23'0 0.0
2018-May-19 14:30N 47°40' W 122°23'0 0.0
2018-May-19 14:00N 47°40' W 122°23'0 0.0
2018-May-19 13:30N 47°40' W 122°23'0 0.0
2018-May-19 12:57N 47°40' W 122°23'0 0.0
2018-May-19 12:30N 47°40' W 122°23'0 0.0
2018-May-19 12:00N 47°40' W 122°23'0 0.0
2018-May-19 11:30N 47°40' W 122°23'0 0.0
2018-May-19 10:57N 47°40' W 122°23'0 0.0
2018-May-19 10:30N 47°40' W 122°23'0 0.0
2018-May-19 10:00N 47°40' W 122°23'0 0.0
2018-May-19 09:30N 47°40' W 122°23'0 0.0
2018-May-19 09:00N 47°40' W 122°23'0 0.0
2018-May-19 08:30N 47°40' W 122°23'0 0.0
2018-May-19 08:00N 47°40' W 122°23'0 0.0
2018-May-19 07:27N 47°40' W 122°23'0 0.0
2018-May-19 07:00N 47°40' W 122°23'0 0.0
2018-May-19 06:30N 47°40' W 122°23'0 0.0
2018-May-19 06:00N 47°40' W 122°23'0 0.0
2018-May-19 05:30N 47°40' W 122°23'0 0.0
2018-May-19 05:00N 47°40' W 122°23'0 0.0
2018-May-19 04:30N 47°40' W 122°23'0 0.0
2018-May-19 04:00N 47°40' W 122°23'0 0.0
2018-May-19 03:30N 47°40' W 122°23'0 0.0
2018-May-19 03:00N 47°40' W 122°23'0 0.0
2018-May-19 02:30N 47°40' W 122°23'0 0.0
2018-May-19 02:00N 47°40' W 122°23'0 0.0
2018-May-19 01:30N 47°40' W 122°23'0 0.0
2018-May-19 01:00N 47°40' W 122°23'0 0.0
2018-May-19 00:30N 47°40' W 122°23'0 0.0
2018-May-19 00:00N 47°40' W 122°23'0 0.0
2018-May-18 23:30N 47°40' W 122°23'0 0.0
2018-May-18 23:00N 47°40' W 122°23'0 0.0
2018-May-18 22:30N 47°40' W 122°23'0 0.0
2018-May-18 22:00N 47°40' W 122°23'0 0.0
2018-May-18 21:30N 47°40' W 122°23'0 0.0
2018-May-18 21:00N 47°40' W 122°23'0 0.0
2018-May-18 20:30N 47°40' W 122°23'0 0.0
2018-May-18 20:00N 47°40' W 122°23'0 0.0
2018-May-18 19:30N 47°40' W 122°23'0 0.0
2018-May-18 19:00N 47°40' W 122°23'0 0.0
2018-May-18 18:30N 47°40' W 122°23'0 0.0
2018-May-18 18:00N 47°40' W 122°23'0 0.0
2018-May-18 17:30N 47°40' W 122°23'0 0.0
2018-May-18 17:00N 47°40' W 122°23'0 0.0
2018-May-18 16:30N 47°40' W 122°23'0 0.0
2018-May-18 16:00N 47°40' W 122°23'0 0.0
2018-May-18 15:30N 47°40' W 122°23'0 0.0
2018-May-18 15:00N 47°40' W 122°23'0 0.0
2018-May-18 14:30N 47°40' W 122°23'0 0.0
2018-May-18 14:00N 47°40' W 122°23'0 0.0
2018-May-18 13:30N 47°40' W 122°23'0 0.0
2018-May-18 13:00N 47°40' W 122°23'0 0.0
2018-May-18 12:30N 47°40' W 122°23'0 0.0
2018-May-18 12:00N 47°40' W 122°23'0 0.0
2018-May-18 11:30N 47°40' W 122°23'0 0.0
2018-May-18 11:00N 47°40' W 122°23'0 0.0
2018-May-18 10:30N 47°40' W 122°23'0 0.0
2018-May-18 10:00N 47°40' W 122°23'0 0.0
2018-May-18 09:27N 47°40' W 122°23'0 0.0
2018-May-18 09:00N 47°40' W 122°23'0 0.0
2018-May-18 08:27N 47°40' W 122°23'0 0.0
2018-May-18 08:00N 47°40' W 122°23'0 0.0
2018-May-18 07:30N 47°40' W 122°23'0 0.0
2018-May-18 07:00N 47°40' W 122°23'0 0.0
2018-May-18 06:30N 47°40' W 122°23'0 0.0
2018-May-18 06:00N 47°40' W 122°23'0 0.0
2018-May-18 05:30N 47°40' W 122°23'0 0.0
2018-May-18 05:00N 47°40' W 122°23'0 0.0
2018-May-18 04:30N 47°40' W 122°23'0 0.0
2018-May-18 04:00N 47°40' W 122°23'0 0.0
2018-May-18 03:30N 47°40' W 122°23'0 0.0
2018-May-18 03:00N 47°40' W 122°23'0 0.0
2018-May-18 02:30N 47°40' W 122°23'0 0.0
2018-May-18 02:00N 47°40' W 122°23'0 0.0
2018-May-18 01:30N 47°40' W 122°23'0 0.0
2018-May-18 01:00N 47°40' W 122°23'0 0.0
2018-May-18 00:30N 47°40' W 122°23'0 0.0
2018-May-18 00:00N 47°40' W 122°23'0 0.0
2018-May-17 23:30N 47°40' W 122°23'0 0.0
2018-May-17 23:00N 47°40' W 122°23'0 0.0
2018-May-17 22:30N 47°40' W 122°23'0 0.0
2018-May-17 22:00N 47°40' W 122°23'0 0.0
2018-May-17 21:30N 47°40' W 122°23'0 0.0
2018-May-17 21:00N 47°40' W 122°23'0 0.0
2018-May-17 20:30N 47°40' W 122°23'0 0.0
2018-May-17 20:00N 47°40' W 122°23'0 0.0
2018-May-17 19:30N 47°40' W 122°23'0 0.0
2018-May-17 19:00N 47°40' W 122°23'0 0.0
2018-May-17 18:30N 47°40' W 122°23'0 0.0
2018-May-17 18:00N 47°40' W 122°23'0 0.0
2018-May-17 17:30N 47°40' W 122°23'0 0.0
2018-May-17 17:00N 47°40' W 122°23'0 0.0
2018-May-17 16:30N 47°40' W 122°23'0 0.0
2018-May-17 16:00N 47°40' W 122°23'0 0.0
2018-May-17 15:30N 47°40' W 122°23'0 0.0
2018-May-17 15:00N 47°40' W 122°23'0 0.0
2018-May-17 14:30N 47°40' W 122°23'0 0.0
2018-May-17 14:00N 47°40' W 122°23'0 0.0
2018-May-17 13:30N 47°40' W 122°23'0 0.0
2018-May-17 13:00N 47°40' W 122°23'0 0.0
2018-May-17 12:30N 47°40' W 122°23'0 0.0
2018-May-17 12:00N 47°40' W 122°23'0 0.0
2018-May-17 11:30N 47°40' W 122°23'0 0.0
2018-May-17 11:00N 47°40' W 122°23'0 0.0
2018-May-17 10:30N 47°40' W 122°23'0 0.0
2018-May-17 10:00N 47°40' W 122°23'0 0.0
2018-May-17 09:30N 47°40' W 122°23'0 0.0
2018-May-17 09:00N 47°40' W 122°23'0 0.0
2018-May-17 08:30N 47°40' W 122°23'0 0.0
2018-May-17 08:00N 47°40' W 122°23'0 0.0
2018-May-17 07:30N 47°40' W 122°23'0 0.0
2018-May-17 07:00N 47°40' W 122°23'0 0.0
2018-May-17 06:30N 47°40' W 122°23'0 0.0
2018-May-17 06:00N 47°40' W 122°23'0 0.0
2018-May-17 05:30N 47°40' W 122°23'0 0.0
2018-May-17 05:00N 47°40' W 122°23'0 0.0
2018-May-17 04:30N 47°40' W 122°23'0 0.0
2018-May-17 04:00N 47°40' W 122°23'0 0.0
2018-May-17 03:30N 47°40' W 122°23'0 0.0
2018-May-17 03:00N 47°40' W 122°23'0 0.0
2018-May-17 02:30N 47°40' W 122°23'0 0.0
2018-May-17 02:00N 47°40' W 122°23'0 0.0
2018-May-17 01:30N 47°40' W 122°23'0 0.0
2018-May-17 01:00N 47°40' W 122°23'0 0.0
2018-May-17 00:30N 47°40' W 122°23'0 0.0
2018-May-17 00:00N 47°40' W 122°23'0 0.0
2018-May-16 23:30N 47°40' W 122°23'0 0.0
2018-May-16 23:00N 47°40' W 122°23'0 0.0
2018-May-16 22:30N 47°40' W 122°23'0 0.0
2018-May-16 22:00N 47°40' W 122°23'0 0.0
2018-May-16 21:30N 47°40' W 122°23'0 0.0
2018-May-16 21:00N 47°40' W 122°23'0 0.0
2018-May-16 20:30N 47°40' W 122°23'0 0.3
2018-May-16 19:59N 47°40' W 122°23'0 0.0
2018-May-16 19:29N 47°40' W 122°23'0 0.3
2018-May-16 19:00N 47°40' W 122°23'0 0.0
2018-May-16 18:30N 47°40' W 122°23'0 0.0
2018-May-16 18:00N 47°40' W 122°23'0 0.0
2018-May-16 17:30N 47°40' W 122°23'0 0.0
2018-May-16 17:00N 47°40' W 122°23'0 0.0
2018-May-16 16:30N 47°40' W 122°23'0 0.0
2018-May-16 16:00N 47°40' W 122°23'0 0.0
2018-May-16 15:30N 47°40' W 122°23'0 0.0
2018-May-16 15:00N 47°40' W 122°23'0 0.0
2018-May-16 14:30N 47°40' W 122°23'0 0.0
2018-May-16 13:57N 47°40' W 122°23'0 0.0
2018-May-16 13:30N 47°40' W 122°23'0 0.0
2018-May-16 13:00N 47°40' W 122°23'0 0.0
2018-May-16 12:30N 47°40' W 122°23'0 0.0
2018-May-16 12:00N 47°40' W 122°23'0 0.0
2018-May-16 11:30N 47°40' W 122°23'0 0.0
2018-May-16 11:00N 47°40' W 122°23'0 0.0
2018-May-16 10:30N 47°40' W 122°23'0 0.0
2018-May-16 10:00N 47°40' W 122°23'0 0.0
2018-May-16 09:30N 47°40' W 122°23'0 0.0
2018-May-16 09:00N 47°40' W 122°23'0 0.0
2018-May-16 08:30N 47°40' W 122°23'0 0.0
2018-May-16 08:00N 47°40' W 122°23'0 0.0
2018-May-16 07:30N 47°40' W 122°23'0 0.0
2018-May-16 07:00N 47°40' W 122°23'0 0.0
2018-May-16 06:30N 47°40' W 122°23'0 0.0
2018-May-16 06:00N 47°40' W 122°23'0 0.0
2018-May-16 05:30N 47°40' W 122°23'0 0.0
2018-May-16 05:00N 47°40' W 122°23'0 0.0
2018-May-16 04:30N 47°40' W 122°23'0 0.0
2018-May-16 04:00N 47°40' W 122°23'0 0.0
2018-May-16 03:30N 47°40' W 122°23'0 0.0
2018-May-16 03:00N 47°40' W 122°23'0 0.0
2018-May-16 02:30N 47°40' W 122°23'0 0.0
2018-May-16 02:00N 47°40' W 122°23'0 0.0
2018-May-16 01:30N 47°40' W 122°23'0 0.0
2018-May-16 01:00N 47°40' W 122°23'0 0.0
2018-May-16 00:30N 47°40' W 122°23'0 0.0
2018-May-16 00:00N 47°40' W 122°23'0 0.0
2018-May-15 23:30N 47°40' W 122°23'0 0.0
2018-May-15 23:00N 47°40' W 122°23'0 0.0
2018-May-15 22:30N 47°40' W 122°23'0 0.0
2018-May-15 22:00N 47°40' W 122°23'0 0.0
2018-May-15 21:30N 47°40' W 122°23'0 0.0
2018-May-15 21:00N 47°40' W 122°23'0 0.0
2018-May-15 20:30N 47°40' W 122°23'0 0.0
2018-May-15 20:00N 47°40' W 122°23'0 0.0
2018-May-15 19:30N 47°40' W 122°23'0 0.0
2018-May-15 19:00N 47°40' W 122°23'0 0.0
2018-May-15 18:30N 47°40' W 122°23'0 0.0
2018-May-15 18:00N 47°40' W 122°23'0 0.0
2018-May-15 17:30N 47°40' W 122°23'0 0.0
2018-May-15 17:00N 47°40' W 122°23'0 0.0
2018-May-15 16:30N 47°40' W 122°23'0 0.0
2018-May-15 16:00N 47°40' W 122°23'0 0.0
2018-May-15 15:30N 47°40' W 122°23'0 0.0
2018-May-15 15:00N 47°40' W 122°23'0 0.0
2018-May-15 14:30N 47°40' W 122°23'0 0.0
2018-May-15 14:00N 47°40' W 122°23'0 0.0
2018-May-15 13:30N 47°40' W 122°23'0 0.0
2018-May-15 13:00N 47°40' W 122°23'0 0.0
2018-May-15 12:30N 47°40' W 122°23'0 0.0
2018-May-15 12:00N 47°40' W 122°23'0 0.0
2018-May-15 11:30N 47°40' W 122°23'0 0.0
2018-May-15 11:00N 47°40' W 122°23'0 0.0
2018-May-15 10:30N 47°40' W 122°23'0 0.0
2018-May-15 10:00N 47°40' W 122°23'0 0.0
2018-May-15 09:30N 47°40' W 122°23'0 0.0
2018-May-15 09:00N 47°40' W 122°23'0 0.0
2018-May-15 08:30N 47°40' W 122°23'0 0.0
2018-May-15 08:00N 47°40' W 122°23'0 0.0
2018-May-15 07:30N 47°40' W 122°23'0 0.0
2018-May-15 07:00N 47°40' W 122°23'0 0.0
2018-May-15 06:30N 47°40' W 122°23'0 0.0
2018-May-15 06:00N 47°40' W 122°23'0 0.0
2018-May-15 05:30N 47°40' W 122°23'0 0.0
2018-May-15 05:00N 47°40' W 122°23'0 0.0
2018-May-15 04:30N 47°40' W 122°23'0 0.0
2018-May-15 04:00N 47°40' W 122°23'0 0.0
2018-May-15 03:30N 47°40' W 122°23'0 0.1
2018-May-15 03:00N 47°40' W 122°23'0 0.1
2018-May-15 02:30N 47°40' W 122°23'0 0.0
2018-May-15 02:00N 47°40' W 122°23'0 0.0
2018-May-15 01:30N 47°40' W 122°23'0 0.0
2018-May-15 01:00N 47°40' W 122°23'0 0.0
2018-May-15 00:30N 47°40' W 122°23'0 0.0
2018-May-14 23:56N 47°40' W 122°23'0 0.0
2018-May-14 23:29N 47°40' W 122°23'0 0.0
2018-May-14 22:59N 47°40' W 122°23'0 0.0
2018-May-14 22:29N 47°40' W 122°23'0 0.0
2018-May-14 21:59N 47°40' W 122°23'0 0.0
2018-May-14 21:29N 47°40' W 122°23'0 0.0
2018-May-14 20:59N 47°40' W 122°23'0 0.0
2018-May-14 20:29N 47°40' W 122°23'0 0.0
2018-May-14 19:59N 47°40' W 122°23'0 0.0
2018-May-14 19:29N 47°40' W 122°23'0 0.0
2018-May-14 18:59N 47°40' W 122°23'0 0.0
2018-May-14 18:26N 47°40' W 122°23'0 0.0
2018-May-14 17:59N 47°40' W 122°23'0 0.0
2018-May-14 17:29N 47°40' W 122°23'0 0.0
2018-May-14 16:59N 47°40' W 122°23'0 0.0
2018-May-14 16:29N 47°40' W 122°23'0 0.0
2018-May-14 15:59N 47°40' W 122°23'0 0.0
2018-May-14 15:29N 47°40' W 122°23'0 0.0
2018-May-14 14:59N 47°40' W 122°23'0 0.0
2018-May-14 14:29N 47°40' W 122°23'0 0.0
2018-May-14 13:59N 47°40' W 122°23'0 0.0
2018-May-14 13:29N 47°40' W 122°23'0 0.0
2018-May-14 12:59N 47°40' W 122°23'0 0.0
2018-May-14 12:29N 47°40' W 122°23'0 0.0
2018-May-14 11:59N 47°40' W 122°23'0 0.0
2018-May-14 11:29N 47°40' W 122°23'0 0.0
2018-May-14 10:59N 47°40' W 122°23'0 0.0
2018-May-14 10:29N 47°40' W 122°23'0 0.0
2018-May-14 09:59N 47°40' W 122°23'0 0.0
2018-May-14 09:29N 47°40' W 122°23'0 0.0
2018-May-14 08:59N 47°40' W 122°23'0 0.0
2018-May-14 08:29N 47°40' W 122°23'0 0.0
2018-May-14 07:59N 47°40' W 122°23'0 0.0
2018-May-14 07:29N 47°40' W 122°23'0 0.0
2018-May-14 06:59N 47°40' W 122°23'0 0.0
2018-May-14 06:29N 47°40' W 122°23'0 0.0
2018-May-14 05:59N 47°40' W 122°23'0 0.0
2018-May-14 05:29N 47°40' W 122°23'0 0.0
2018-May-14 04:59N 47°40' W 122°23'0 0.0
2018-May-14 04:29N 47°40' W 122°23'0 0.0
2018-May-14 03:59N 47°40' W 122°23'0 0.0
2018-May-14 03:28N 47°40' W 122°23'0 0.0
2018-May-14 02:58N 47°40' W 122°23'0 0.0
2018-May-14 02:28N 47°40' W 122°23'0 0.0
2018-May-14 01:58N 47°40' W 122°23'0 0.0
2018-May-14 01:28N 47°40' W 122°23'0 0.0
2018-May-14 00:58N 47°40' W 122°23'0 0.0
2018-May-14 00:28N 47°40' W 122°23'0 0.0
2018-May-13 23:58N 47°40' W 122°23'0 0.0
2018-May-13 23:28N 47°40' W 122°23'0 0.0
2018-May-13 22:58N 47°40' W 122°23'0 0.0
2018-May-13 22:28N 47°40' W 122°23'0 0.1
2018-May-13 21:58N 47°40' W 122°23'0 0.1
2018-May-13 21:28N 47°40' W 122°23'0 0.0
2018-May-13 20:55N 47°40' W 122°23'0 0.0
2018-May-13 20:28N 47°40' W 122°23'0 0.0
2018-May-13 19:58N 47°40' W 122°23'0 0.0
2018-May-13 19:28N 47°40' W 122°23'0 0.0
2018-May-13 18:58N 47°40' W 122°23'0 0.0
2018-May-13 18:28N 47°40' W 122°23'0 0.0
2018-May-13 17:58N 47°40' W 122°23'0 0.0
2018-May-13 17:31N 47°40' W 122°23'0 0.0
2018-May-13 16:58N 47°40' W 122°23'0 0.0
2018-May-13 16:28N 47°40' W 122°23'0 0.0
2018-May-13 15:58N 47°40' W 122°23'0 0.0
2018-May-13 15:30N 47°40' W 122°23'0 0.0
2018-May-13 15:00N 47°40' W 122°23'0 0.0
2018-May-13 14:30N 47°40' W 122°23'0 0.0
2018-May-13 14:00N 47°40' W 122°23'0 0.0
2018-May-13 13:30N 47°40' W 122°23'0 0.0
2018-May-13 13:00N 47°40' W 122°23'0 0.0
2018-May-13 12:30N 47°40' W 122°23'0 0.0
2018-May-13 12:00N 47°40' W 122°23'0 0.0
2018-May-13 11:30N 47°40' W 122°23'0 0.0
2018-May-13 11:00N 47°40' W 122°23'0 0.0
2018-May-13 10:30N 47°40' W 122°23'0 0.0
2018-May-13 10:00N 47°40' W 122°23'0 0.0
2018-May-13 09:30N 47°40' W 122°23'0 0.0
2018-May-13 09:00N 47°40' W 122°23'0 0.0
2018-May-13 08:30N 47°40' W 122°23'0 0.0
2018-May-13 08:00N 47°40' W 122°23'0 0.0
2018-May-13 07:30N 47°40' W 122°23'0 0.0
2018-May-13 07:00N 47°40' W 122°23'0 0.0
2018-May-13 06:30N 47°40' W 122°23'0 0.0
2018-May-13 06:00N 47°40' W 122°23'0 0.0
2018-May-13 05:30N 47°40' W 122°23'0 0.0
2018-May-13 05:00N 47°40' W 122°23'0 0.0
2018-May-13 04:30N 47°40' W 122°23'0 0.0
2018-May-13 04:00N 47°40' W 122°23'0 0.0
2018-May-13 03:30N 47°40' W 122°23'0 0.0
2018-May-13 03:00N 47°40' W 122°23'0 0.0
2018-May-13 02:30N 47°40' W 122°23'0 0.0
2018-May-13 02:00N 47°40' W 122°23'0 0.0
2018-May-13 01:30N 47°40' W 122°23'0 0.0
2018-May-13 01:00N 47°40' W 122°23'0 0.0
2018-May-13 00:30N 47°40' W 122°23'0 0.0
2018-May-13 00:00N 47°40' W 122°23'0 0.0
2018-May-12 23:27N 47°40' W 122°23'0 0.0
2018-May-12 23:00N 47°40' W 122°23'0 0.0
2018-May-12 22:24N 47°40' W 122°23'0 0.0
2018-May-12 22:00N 47°40' W 122°23'0 0.0
2018-May-12 21:30N 47°40' W 122°23'0 0.0
2018-May-12 20:54N 47°40' W 122°23'0 0.0
2018-May-12 20:30N 47°40' W 122°23'0 0.0
2018-May-12 20:00N 47°40' W 122°23'0 0.0
2018-May-12 19:30N 47°40' W 122°23'0 0.0
2018-May-12 19:00N 47°40' W 122°23'0 0.0
2018-May-12 18:30N 47°40' W 122°23'0 0.0
2018-May-12 18:00N 47°40' W 122°23'0 0.0
2018-May-12 17:30N 47°40' W 122°23'0 0.0
2018-May-12 17:00N 47°40' W 122°23'  
Track history (hours):
 
Tides and Currents Weather Stations Pressure Air Temp Water Temp Dewpoint Dewpoint Depression Visibility Wind Speed Wind Dir Waves Ship Positions

Forty Niner

Owner: Forty-Niner Marine Services, LLC, Anchorage, AK. More information available from US FCC via Universal Licensing System and Coast Guard Vessel Documentation Center.

Last reported at 2018-May-22 16:38 UTC. Time now 2018-Jul-22 08:28 UTC.
Position N 54°31' W 130°38'.
Warning: this ship's position is months out of date.

Length 21 m.

Type: Pleasure craft. MMSI: 367660390.

Date/timePositionNaut miles runAvg speedWind from/ knotsBaromVisibWave heightAir tempDewpointWater temp
2018-May-22 16:38N 54°31' W 130°38'529.8
2018-May-22 16:28N 54°26' W 130°36'1328.5
2018-May-22 16:00N 54°14' W 130°28'611.2
2018-May-22 15:30N 54°18' W 130°21'1 2.7
2018-May-22 14:59N 54°19' W 130°19'0 0.0
2018-May-22 14:26N 54°19' W 130°19'0 0.0
2018-May-22 13:59N 54°19' W 130°19'0 0.0
2018-May-22 13:29N 54°19' W 130°19'0 0.0
2018-May-22 12:59N 54°19' W 130°19'0 0.0
2018-May-22 12:29N 54°19' W 130°19'0 0.0
2018-May-22 11:53N 54°19' W 130°19'0 0.0
2018-May-22 11:26N 54°19' W 130°19'0 0.0
2018-May-22 10:53N 54°19' W 130°19'0 0.0
2018-May-22 10:29N 54°19' W 130°19'0 0.0
2018-May-22 09:59N 54°19' W 130°19'0 0.0
2018-May-22 09:29N 54°19' W 130°19'0 0.0
2018-May-22 08:59N 54°19' W 130°19'0 0.0
2018-May-22 08:23N 54°19' W 130°19'0 0.0
2018-May-22 07:59N 54°19' W 130°19'0 0.0
2018-May-22 07:29N 54°19' W 130°19'0 0.0
2018-May-22 06:59N 54°19' W 130°19'0 0.0
2018-May-22 06:29N 54°19' W 130°19'0 0.0
2018-May-22 05:59N 54°19' W 130°19'0 0.0
2018-May-22 05:29N 54°19' W 130°19'0 0.0
2018-May-22 04:59N 54°19' W 130°19'0 0.0
2018-May-22 04:29N 54°19' W 130°19'0 0.0
2018-May-22 03:59N 54°19' W 130°19'0 0.0
2018-May-22 03:29N 54°19' W 130°19'0 0.0
2018-May-22 02:56N 54°19' W 130°19'0 0.0
2018-May-22 02:29N 54°19' W 130°19'0 0.0
2018-May-22 01:59N 54°19' W 130°19'0 0.0
2018-May-22 01:29N 54°19' W 130°19'0 0.0
2018-May-22 00:59N 54°19' W 130°19'0 0.0
2018-May-22 00:29N 54°19' W 130°19'0 0.0
2018-May-21 23:59N 54°19' W 130°19'0 0.0
2018-May-21 23:29N 54°19' W 130°19'0 0.0
2018-May-21 22:59N 54°19' W 130°19'0 0.0
2018-May-21 22:29N 54°19' W 130°19'3 5.5
2018-May-21 22:00N 54°17' W 130°22'1325.6
2018-May-21 21:30N 54°05' W 130°17'1326.8
2018-May-21 21:00N 53°53' W 130°06'10423.7
2018-May-21 16:38N 52°28' W 128°28'22 1.3
2018-May-20 23:06N 52°10' W 128°06'2 7.0
2018-May-20 22:52N 52°09' W 128°08'514.9
2018-May-20 22:30N 52°05' W 128°02'1121.6
2018-May-20 22:00N 51°55' W 127°55'1326.9
2018-May-20 21:30N 51°41' W 127°54'1327.0
2018-May-20 21:00N 51°28' W 127°51'2025.7
2018-May-20 20:13N 51°08' W 127°48'625.7
2018-May-20 19:59N 51°04' W 127°41'1326.1
2018-May-20 19:30N 50°55' W 127°26'1525.8
2018-May-20 18:56N 50°48' W 127°06'7424.4
2018-May-20 15:54N 50°13' W 125°23'1125.6
2018-May-20 15:29N 50°04' W 125°15'2 3.5
2018-May-20 14:58N 50°02' W 125°15'0 0.0
2018-May-20 14:28N 50°02' W 125°15'0 0.0
2018-May-20 13:58N 50°02' W 125°15'0 0.0
2018-May-20 13:28N 50°02' W 125°15'0 0.0
2018-May-20 12:58N 50°02' W 125°15'0 0.0
2018-May-20 12:28N 50°02' W 125°15'0 0.0
2018-May-20 11:58N 50°02' W 125°15'0 0.0
2018-May-20 11:28N 50°02' W 125°15'0 0.0
2018-May-20 10:58N 50°02' W 125°15'0 0.0
2018-May-20 10:28N 50°02' W 125°15'0 0.0
2018-May-20 09:58N 50°02' W 125°15'0 0.0
2018-May-20 09:28N 50°02' W 125°15'0 0.0
2018-May-20 08:58N 50°02' W 125°15'0 0.0
2018-May-20 08:28N 50°02' W 125°15'0 0.0
2018-May-20 07:58N 50°02' W 125°15'0 0.0
2018-May-20 07:28N 50°02' W 125°15'0 0.0
2018-May-20 06:58N 50°02' W 125°15'0 0.0
2018-May-20 06:28N 50°02' W 125°15'0 0.0
2018-May-20 05:58N 50°02' W 125°15'0 0.0
2018-May-20 05:28N 50°02' W 125°15'0 0.0
2018-May-20 04:58N 50°02' W 125°15'0 0.0
2018-May-20 04:28N 50°02' W 125°15'0 0.0
2018-May-20 03:58N 50°02' W 125°15'0 0.0
2018-May-20 03:28N 50°02' W 125°15'0 0.0
2018-May-20 02:58N 50°02' W 125°15'0 0.0
2018-May-20 02:28N 50°02' W 125°15'0 0.0
2018-May-20 01:58N 50°02' W 125°15'0 0.0
2018-May-20 01:28N 50°02' W 125°15'0 0.0
2018-May-20 00:58N 50°02' W 125°15'0 0.0
2018-May-20 00:28N 50°02' W 125°15'0 0.4
2018-May-19 23:59N 50°02' W 125°15'0 0.1
2018-May-19 23:28N 50°02' W 125°15'918.6
2018-May-19 22:59N 49°55' W 125°06'1327.0
2018-May-19 22:30N 49°46' W 124°51'8025.0
2018-May-19 19:17N 48°52' W 123°21'722.8
2018-May-19 18:59N 48°45' W 123°19'1723.1
2018-May-19 18:16N 48°29' W 123°09'4322.4
2018-May-19 16:21N 47°56' W 122°30'926.3
2018-May-19 16:00N 47°47' W 122°26'713.0
2018-May-19 15:28N 47°40' W 122°24'1 1.1
2018-May-19 14:57N 47°40' W 122°23'0 0.0
2018-May-19 14:30N 47°40' W 122°23'0 0.0
2018-May-19 14:00N 47°40' W 122°23'0 0.0
2018-May-19 13:30N 47°40' W 122°23'0 0.0
2018-May-19 12:57N 47°40' W 122°23'0 0.0
2018-May-19 12:30N 47°40' W 122°23'0 0.0
2018-May-19 12:00N 47°40' W 122°23'0 0.0
2018-May-19 11:30N 47°40' W 122°23'0 0.0
2018-May-19 10:57N 47°40' W 122°23'0 0.0
2018-May-19 10:30N 47°40' W 122°23'0 0.0
2018-May-19 10:00N 47°40' W 122°23'0 0.0
2018-May-19 09:30N 47°40' W 122°23'0 0.0
2018-May-19 09:00N 47°40' W 122°23'0 0.0
2018-May-19 08:30N 47°40' W 122°23'0 0.0
2018-May-19 08:00N 47°40' W 122°23'0 0.0
2018-May-19 07:27N 47°40' W 122°23'0 0.0
2018-May-19 07:00N 47°40' W 122°23'0 0.0
2018-May-19 06:30N 47°40' W 122°23'0 0.0
2018-May-19 06:00N 47°40' W 122°23'0 0.0
2018-May-19 05:30N 47°40' W 122°23'0 0.0
2018-May-19 05:00N 47°40' W 122°23'0 0.0
2018-May-19 04:30N 47°40' W 122°23'0 0.0
2018-May-19 04:00N 47°40' W 122°23'0 0.0
2018-May-19 03:30N 47°40' W 122°23'0 0.0
2018-May-19 03:00N 47°40' W 122°23'0 0.0
2018-May-19 02:30N 47°40' W 122°23'0 0.0
2018-May-19 02:00N 47°40' W 122°23'0 0.0
2018-May-19 01:30N 47°40' W 122°23'0 0.0
2018-May-19 01:00N 47°40' W 122°23'0 0.0
2018-May-19 00:30N 47°40' W 122°23'0 0.0
2018-May-19 00:00N 47°40' W 122°23'0 0.0
2018-May-18 23:30N 47°40' W 122°23'0 0.0
2018-May-18 23:00N 47°40' W 122°23'0 0.0
2018-May-18 22:30N 47°40' W 122°23'0 0.0
2018-May-18 22:00N 47°40' W 122°23'0 0.0
2018-May-18 21:30N 47°40' W 122°23'0 0.0
2018-May-18 21:00N 47°40' W 122°23'0 0.0
2018-May-18 20:30N 47°40' W 122°23'0 0.0
2018-May-18 20:00N 47°40' W 122°23'0 0.0
2018-May-18 19:30N 47°40' W 122°23'0 0.0
2018-May-18 19:00N 47°40' W 122°23'0 0.0
2018-May-18 18:30N 47°40' W 122°23'0 0.0
2018-May-18 18:00N 47°40' W 122°23'0 0.0
2018-May-18 17:30N 47°40' W 122°23'0 0.0
2018-May-18 17:00N 47°40' W 122°23'0 0.0
2018-May-18 16:30N 47°40' W 122°23'0 0.0
2018-May-18 16:00N 47°40' W 122°23'0 0.0
2018-May-18 15:30N 47°40' W 122°23'0 0.0
2018-May-18 15:00N 47°40' W 122°23'0 0.0
2018-May-18 14:30N 47°40' W 122°23'0 0.0
2018-May-18 14:00N 47°40' W 122°23'0 0.0
2018-May-18 13:30N 47°40' W 122°23'0 0.0
2018-May-18 13:00N 47°40' W 122°23'0 0.0
2018-May-18 12:30N 47°40' W 122°23'0 0.0
2018-May-18 12:00N 47°40' W 122°23'0 0.0
2018-May-18 11:30N 47°40' W 122°23'0 0.0
2018-May-18 11:00N 47°40' W 122°23'0 0.0
2018-May-18 10:30N 47°40' W 122°23'0 0.0
2018-May-18 10:00N 47°40' W 122°23'0 0.0
2018-May-18 09:27N 47°40' W 122°23'0 0.0
2018-May-18 09:00N 47°40' W 122°23'0 0.0
2018-May-18 08:27N 47°40' W 122°23'0 0.0
2018-May-18 08:00N 47°40' W 122°23'0 0.0
2018-May-18 07:30N 47°40' W 122°23'0 0.0
2018-May-18 07:00N 47°40' W 122°23'0 0.0
2018-May-18 06:30N 47°40' W 122°23'0 0.0
2018-May-18 06:00N 47°40' W 122°23'0 0.0
2018-May-18 05:30N 47°40' W 122°23'0 0.0
2018-May-18 05:00N 47°40' W 122°23'0 0.0
2018-May-18 04:30N 47°40' W 122°23'0 0.0
2018-May-18 04:00N 47°40' W 122°23'0 0.0
2018-May-18 03:30N 47°40' W 122°23'0 0.0
2018-May-18 03:00N 47°40' W 122°23'0 0.0
2018-May-18 02:30N 47°40' W 122°23'0 0.0
2018-May-18 02:00N 47°40' W 122°23'0 0.0
2018-May-18 01:30N 47°40' W 122°23'0 0.0
2018-May-18 01:00N 47°40' W 122°23'0 0.0
2018-May-18 00:30N 47°40' W 122°23'0 0.0
2018-May-18 00:00N 47°40' W 122°23'0 0.0
2018-May-17 23:30N 47°40' W 122°23'0 0.0
2018-May-17 23:00N 47°40' W 122°23'0 0.0
2018-May-17 22:30N 47°40' W 122°23'0 0.0
2018-May-17 22:00N 47°40' W 122°23'0 0.0
2018-May-17 21:30N 47°40' W 122°23'0 0.0
2018-May-17 21:00N 47°40' W 122°23'0 0.0
2018-May-17 20:30N 47°40' W 122°23'0 0.0
2018-May-17 20:00N 47°40' W 122°23'0 0.0
2018-May-17 19:30N 47°40' W 122°23'0 0.0
2018-May-17 19:00N 47°40' W 122°23'0 0.0
2018-May-17 18:30N 47°40' W 122°23'0 0.0
2018-May-17 18:00N 47°40' W 122°23'0 0.0
2018-May-17 17:30N 47°40' W 122°23'0 0.0
2018-May-17 17:00N 47°40' W 122°23'0 0.0
2018-May-17 16:30N 47°40' W 122°23'0 0.0
2018-May-17 16:00N 47°40' W 122°23'0 0.0
2018-May-17 15:30N 47°40' W 122°23'0 0.0
2018-May-17 15:00N 47°40' W 122°23'0 0.0
2018-May-17 14:30N 47°40' W 122°23'0 0.0
2018-May-17 14:00N 47°40' W 122°23'0 0.0
2018-May-17 13:30N 47°40' W 122°23'0 0.0
2018-May-17 13:00N 47°40' W 122°23'0 0.0
2018-May-17 12:30N 47°40' W 122°23'0 0.0
2018-May-17 12:00N 47°40' W 122°23'0 0.0
2018-May-17 11:30N 47°40' W 122°23'0 0.0
2018-May-17 11:00N 47°40' W 122°23'0 0.0
2018-May-17 10:30N 47°40' W 122°23'0 0.0
2018-May-17 10:00N 47°40' W 122°23'0 0.0
2018-May-17 09:30N 47°40' W 122°23'0 0.0
2018-May-17 09:00N 47°40' W 122°23'0 0.0
2018-May-17 08:30N 47°40' W 122°23'0 0.0
2018-May-17 08:00N 47°40' W 122°23'0 0.0
2018-May-17 07:30N 47°40' W 122°23'0 0.0
2018-May-17 07:00N 47°40' W 122°23'0 0.0
2018-May-17 06:30N 47°40' W 122°23'0 0.0
2018-May-17 06:00N 47°40' W 122°23'0 0.0
2018-May-17 05:30N 47°40' W 122°23'0 0.0
2018-May-17 05:00N 47°40' W 122°23'0 0.0
2018-May-17 04:30N 47°40' W 122°23'0 0.0
2018-May-17 04:00N 47°40' W 122°23'0 0.0
2018-May-17 03:30N 47°40' W 122°23'0 0.0
2018-May-17 03:00N 47°40' W 122°23'0 0.0
2018-May-17 02:30N 47°40' W 122°23'0 0.0
2018-May-17 02:00N 47°40' W 122°23'0 0.0
2018-May-17 01:30N 47°40' W 122°23'0 0.0
2018-May-17 01:00N 47°40' W 122°23'0 0.0
2018-May-17 00:30N 47°40' W 122°23'0 0.0
2018-May-17 00:00N 47°40' W 122°23'0 0.0
2018-May-16 23:30N 47°40' W 122°23'0 0.0
2018-May-16 23:00N 47°40' W 122°23'0 0.0
2018-May-16 22:30N 47°40' W 122°23'0 0.0
2018-May-16 22:00N 47°40' W 122°23'0 0.0
2018-May-16 21:30N 47°40' W 122°23'0 0.0
2018-May-16 21:00N 47°40' W 122°23'0 0.0
2018-May-16 20:30N 47°40' W 122°23'0 0.3
2018-May-16 19:59N 47°40' W 122°23'0 0.0
2018-May-16 19:29N 47°40' W 122°23'0 0.3
2018-May-16 19:00N 47°40' W 122°23'0 0.0
2018-May-16 18:30N 47°40' W 122°23'0 0.0
2018-May-16 18:00N 47°40' W 122°23'0 0.0
2018-May-16 17:30N 47°40' W 122°23'0 0.0
2018-May-16 17:00N 47°40' W 122°23'0 0.0
2018-May-16 16:30N 47°40' W 122°23'0 0.0
2018-May-16 16:00N 47°40' W 122°23'0 0.0
2018-May-16 15:30N 47°40' W 122°23'0 0.0
2018-May-16 15:00N 47°40' W 122°23'0 0.0
2018-May-16 14:30N 47°40' W 122°23'0 0.0
2018-May-16 13:57N 47°40' W 122°23'0 0.0
2018-May-16 13:30N 47°40' W 122°23'0 0.0
2018-May-16 13:00N 47°40' W 122°23'0 0.0
2018-May-16 12:30N 47°40' W 122°23'0 0.0
2018-May-16 12:00N 47°40' W 122°23'0 0.0
2018-May-16 11:30N 47°40' W 122°23'0 0.0
2018-May-16 11:00N 47°40' W 122°23'0 0.0
2018-May-16 10:30N 47°40' W 122°23'0 0.0
2018-May-16 10:00N 47°40' W 122°23'0 0.0
2018-May-16 09:30N 47°40' W 122°23'0 0.0
2018-May-16 09:00N 47°40' W 122°23'0 0.0
2018-May-16 08:30N 47°40' W 122°23'0 0.0
2018-May-16 08:00N 47°40' W 122°23'0 0.0
2018-May-16 07:30N 47°40' W 122°23'0 0.0
2018-May-16 07:00N 47°40' W 122°23'0 0.0
2018-May-16 06:30N 47°40' W 122°23'0 0.0
2018-May-16 06:00N 47°40' W 122°23'0 0.0
2018-May-16 05:30N 47°40' W 122°23'0 0.0
2018-May-16 05:00N 47°40' W 122°23'0 0.0
2018-May-16 04:30N 47°40' W 122°23'0 0.0
2018-May-16 04:00N 47°40' W 122°23'0 0.0
2018-May-16 03:30N 47°40' W 122°23'0 0.0
2018-May-16 03:00N 47°40' W 122°23'0 0.0
2018-May-16 02:30N 47°40' W 122°23'0 0.0
2018-May-16 02:00N 47°40' W 122°23'0 0.0
2018-May-16 01:30N 47°40' W 122°23'0 0.0
2018-May-16 01:00N 47°40' W 122°23'0 0.0
2018-May-16 00:30N 47°40' W 122°23'0 0.0
2018-May-16 00:00N 47°40' W 122°23'0 0.0
2018-May-15 23:30N 47°40' W 122°23'0 0.0
2018-May-15 23:00N 47°40' W 122°23'0 0.0
2018-May-15 22:30N 47°40' W 122°23'0 0.0
2018-May-15 22:00N 47°40' W 122°23'0 0.0
2018-May-15 21:30N 47°40' W 122°23'0 0.0
2018-May-15 21:00N 47°40' W 122°23'0 0.0
2018-May-15 20:30N 47°40' W 122°23'0 0.0
2018-May-15 20:00N 47°40' W 122°23'0 0.0
2018-May-15 19:30N 47°40' W 122°23'0 0.0
2018-May-15 19:00N 47°40' W 122°23'0 0.0
2018-May-15 18:30N 47°40' W 122°23'0 0.0
2018-May-15 18:00N 47°40' W 122°23'0 0.0
2018-May-15 17:30N 47°40' W 122°23'0 0.0
2018-May-15 17:00N 47°40' W 122°23'0 0.0
2018-May-15 16:30N 47°40' W 122°23'0 0.0
2018-May-15 16:00N 47°40' W 122°23'0 0.0
2018-May-15 15:30N 47°40' W 122°23'0 0.0
2018-May-15 15:00N 47°40' W 122°23'0 0.0
2018-May-15 14:30N 47°40' W 122°23'0 0.0
2018-May-15 14:00N 47°40' W 122°23'0 0.0
2018-May-15 13:30N 47°40' W 122°23'0 0.0
2018-May-15 13:00N 47°40' W 122°23'0 0.0
2018-May-15 12:30N 47°40' W 122°23'0 0.0
2018-May-15 12:00N 47°40' W 122°23'0 0.0
2018-May-15 11:30N 47°40' W 122°23'0 0.0
2018-May-15 11:00N 47°40' W 122°23'0 0.0
2018-May-15 10:30N 47°40' W 122°23'0 0.0
2018-May-15 10:00N 47°40' W 122°23'0 0.0
2018-May-15 09:30N 47°40' W 122°23'0 0.0
2018-May-15 09:00N 47°40' W 122°23'0 0.0
2018-May-15 08:30N 47°40' W 122°23'0 0.0
2018-May-15 08:00N 47°40' W 122°23'0 0.0
2018-May-15 07:30N 47°40' W 122°23'0 0.0
2018-May-15 07:00N 47°40' W 122°23'0 0.0
2018-May-15 06:30N 47°40' W 122°23'0 0.0
2018-May-15 06:00N 47°40' W 122°23'0 0.0
2018-May-15 05:30N 47°40' W 122°23'0 0.0
2018-May-15 05:00N 47°40' W 122°23'0 0.0
2018-May-15 04:30N 47°40' W 122°23'0 0.0
2018-May-15 04:00N 47°40' W 122°23'0 0.0
2018-May-15 03:30N 47°40' W 122°23'0 0.1
2018-May-15 03:00N 47°40' W 122°23'0 0.1
2018-May-15 02:30N 47°40' W 122°23'0 0.0
2018-May-15 02:00N 47°40' W 122°23'0 0.0
2018-May-15 01:30N 47°40' W 122°23'0 0.0
2018-May-15 01:00N 47°40' W 122°23'0 0.0
2018-May-15 00:30N 47°40' W 122°23'0 0.0
2018-May-14 23:56N 47°40' W 122°23'0 0.0
2018-May-14 23:29N 47°40' W 122°23'0 0.0
2018-May-14 22:59N 47°40' W 122°23'0 0.0
2018-May-14 22:29N 47°40' W 122°23'0 0.0
2018-May-14 21:59N 47°40' W 122°23'0 0.0
2018-May-14 21:29N 47°40' W 122°23'0 0.0
2018-May-14 20:59N 47°40' W 122°23'0 0.0
2018-May-14 20:29N 47°40' W 122°23'0 0.0
2018-May-14 19:59N 47°40' W 122°23'0 0.0
2018-May-14 19:29N 47°40' W 122°23'0 0.0
2018-May-14 18:59N 47°40' W 122°23'0 0.0
2018-May-14 18:26N 47°40' W 122°23'0 0.0
2018-May-14 17:59N 47°40' W 122°23'0 0.0
2018-May-14 17:29N 47°40' W 122°23'0 0.0
2018-May-14 16:59N 47°40' W 122°23'0 0.0
2018-May-14 16:29N 47°40' W 122°23'0 0.0
2018-May-14 15:59N 47°40' W 122°23'0 0.0
2018-May-14 15:29N 47°40' W 122°23'0 0.0
2018-May-14 14:59N 47°40' W 122°23'0 0.0
2018-May-14 14:29N 47°40' W 122°23'0 0.0
2018-May-14 13:59N 47°40' W 122°23'0 0.0
2018-May-14 13:29N 47°40' W 122°23'0 0.0
2018-May-14 12:59N 47°40' W 122°23'0 0.0
2018-May-14 12:29N 47°40' W 122°23'0 0.0
2018-May-14 11:59N 47°40' W 122°23'0 0.0
2018-May-14 11:29N 47°40' W 122°23'0 0.0
2018-May-14 10:59N 47°40' W 122°23'0 0.0
2018-May-14 10:29N 47°40' W 122°23'0 0.0
2018-May-14 09:59N 47°40' W 122°23'0 0.0
2018-May-14 09:29N 47°40' W 122°23'0 0.0
2018-May-14 08:59N 47°40' W 122°23'0 0.0
2018-May-14 08:29N 47°40' W 122°23'0 0.0
2018-May-14 07:59N 47°40' W 122°23'0 0.0
2018-May-14 07:29N 47°40' W 122°23'0 0.0
2018-May-14 06:59N 47°40' W 122°23'0 0.0
2018-May-14 06:29N 47°40' W 122°23'0 0.0
2018-May-14 05:59N 47°40' W 122°23'0 0.0
2018-May-14 05:29N 47°40' W 122°23'0 0.0
2018-May-14 04:59N 47°40' W 122°23'0 0.0
2018-May-14 04:29N 47°40' W 122°23'0 0.0
2018-May-14 03:59N 47°40' W 122°23'0 0.0
2018-May-14 03:28N 47°40' W 122°23'0 0.0
2018-May-14 02:58N 47°40' W 122°23'0 0.0
2018-May-14 02:28N 47°40' W 122°23'0 0.0
2018-May-14 01:58N 47°40' W 122°23'0 0.0
2018-May-14 01:28N 47°40' W 122°23'0 0.0
2018-May-14 00:58N 47°40' W 122°23'0 0.0
2018-May-14 00:28N 47°40' W 122°23'0 0.0
2018-May-13 23:58N 47°40' W 122°23'0 0.0
2018-May-13 23:28N 47°40' W 122°23'0 0.0
2018-May-13 22:58N 47°40' W 122°23'0 0.0
2018-May-13 22:28N 47°40' W 122°23'0 0.1
2018-May-13 21:58N 47°40' W 122°23'0 0.1
2018-May-13 21:28N 47°40' W 122°23'0 0.0
2018-May-13 20:55N 47°40' W 122°23'0 0.0
2018-May-13 20:28N 47°40' W 122°23'0 0.0
2018-May-13 19:58N 47°40' W 122°23'0 0.0
2018-May-13 19:28N 47°40' W 122°23'0 0.0
2018-May-13 18:58N 47°40' W 122°23'0 0.0
2018-May-13 18:28N 47°40' W 122°23'0 0.0
2018-May-13 17:58N 47°40' W 122°23'0 0.0
2018-May-13 17:31N 47°40' W 122°23'0 0.0
2018-May-13 16:58N 47°40' W 122°23'0 0.0
2018-May-13 16:28N 47°40' W 122°23'0 0.0
2018-May-13 15:58N 47°40' W 122°23'0 0.0
2018-May-13 15:30N 47°40' W 122°23'0 0.0
2018-May-13 15:00N 47°40' W 122°23'0 0.0
2018-May-13 14:30N 47°40' W 122°23'0 0.0
2018-May-13 14:00N 47°40' W 122°23'0 0.0
2018-May-13 13:30N 47°40' W 122°23'0 0.0
2018-May-13 13:00N 47°40' W 122°23'0 0.0
2018-May-13 12:30N 47°40' W 122°23'0 0.0
2018-May-13 12:00N 47°40' W 122°23'0 0.0
2018-May-13 11:30N 47°40' W 122°23'0 0.0
2018-May-13 11:00N 47°40' W 122°23'0 0.0
2018-May-13 10:30N 47°40' W 122°23'0 0.0
2018-May-13 10:00N 47°40' W 122°23'0 0.0
2018-May-13 09:30N 47°40' W 122°23'0 0.0
2018-May-13 09:00N 47°40' W 122°23'0 0.0
2018-May-13 08:30N 47°40' W 122°23'0 0.0
2018-May-13 08:00N 47°40' W 122°23'0 0.0
2018-May-13 07:30N 47°40' W 122°23'0 0.0
2018-May-13 07:00N 47°40' W 122°23'0 0.0
2018-May-13 06:30N 47°40' W 122°23'0 0.0
2018-May-13 06:00N 47°40' W 122°23'0 0.0
2018-May-13 05:30N 47°40' W 122°23'0 0.0
2018-May-13 05:00N 47°40' W 122°23'0 0.0
2018-May-13 04:30N 47°40' W 122°23'0 0.0
2018-May-13 04:00N 47°40' W 122°23'0 0.0
2018-May-13 03:30N 47°40' W 122°23'0 0.0
2018-May-13 03:00N 47°40' W 122°23'0 0.0
2018-May-13 02:30N 47°40' W 122°23'0 0.0
2018-May-13 02:00N 47°40' W 122°23'0 0.0
2018-May-13 01:30N 47°40' W 122°23'0 0.0
2018-May-13 01:00N 47°40' W 122°23'0 0.0
2018-May-13 00:30N 47°40' W 122°23'0 0.0
2018-May-13 00:00N 47°40' W 122°23'0 0.0
2018-May-12 23:27N 47°40' W 122°23'0 0.0
2018-May-12 23:00N 47°40' W 122°23'0 0.0
2018-May-12 22:24N 47°40' W 122°23'0 0.0
2018-May-12 22:00N 47°40' W 122°23'0 0.0
2018-May-12 21:30N 47°40' W 122°23'0 0.0
2018-May-12 20:54N 47°40' W 122°23'0 0.0
2018-May-12 20:30N 47°40' W 122°23'0 0.0
2018-May-12 20:00N 47°40' W 122°23'0 0.0
2018-May-12 19:30N 47°40' W 122°23'0 0.0
2018-May-12 19:00N 47°40' W 122°23'0 0.0
2018-May-12 18:30N 47°40' W 122°23'0 0.0
2018-May-12 18:00N 47°40' W 122°23'0 0.0
2018-May-12 17:30N 47°40' W 122°23'0 0.0
2018-May-12 17:00N 47°40' W 122°23'  

Dump ship's entire track history